Hamburg — V7OZ6 — position and weather

sailwx.info

Track history (hours):
 
Tides and Currents Weather Stations Pressure Air Temp Water Temp Dewpoint Dewpoint Depression Visibility Wind Speed Wind Dir Waves Ship Positions

Hamburg

Last reported at 2018-May-14 11:28 UTC. Time now 2018-Jun-22 20:16 UTC.
Position N 30°33' E 122°15'.
Warning: this ship's position is 39 days out of date.

Length 293 m; draft 10.6 m.

Type: Ship. MMSI: 538006605.

Date/timePositionNaut miles runAvg speedWind from/ knotsBaromVisibWave heightAir tempDewpointWater temp
2018-May-14 11:28N 30°33' E 122°15'610.9
2018-May-14 10:54N 30°35' E 122°08'4 0.3
2018-May-13 22:12N 30°37' E 122°04'0 1.2
2018-May-13 21:53N 30°37' E 122°04'3 7.0
2018-May-13 21:29N 30°35' E 122°07'612.1
2018-May-13 21:01N 30°34' E 122°13'6 7.8
2018-May-13 20:11N 30°33' E 122°21'3 9.3
2018-May-13 19:49N 30°32' E 122°24'3 8.9
2018-May-13 19:30N 30°32' E 122°28'5 9.9
2018-May-13 18:59N 30°31' E 122°33'  
2018-May-08 11:21N 24°41' E 119°29'410.5
2018-May-08 11:00N 24°39' E 119°26'610.5
2018-May-08 10:28N 24°35' E 119°21'510.5
2018-May-08 09:59N 24°33' E 119°16'510.3
2018-May-08 09:30N 24°29' E 119°12'610.5
2018-May-08 08:57N 24°25' E 119°08'510.4
2018-May-08 08:30N 24°22' E 119°04'510.7
2018-May-08 08:00N 24°19' E 118°59'510.6
2018-May-08 07:30N 24°15' E 118°55'610.8
2018-May-08 06:59N 24°12' E 118°50'510.8
2018-May-08 06:30N 24°08' E 118°46'510.6
2018-May-08 06:00N 24°05' E 118°42'510.7
2018-May-08 05:30N 24°01' E 118°37'611.0
2018-May-08 05:00N 23°58' E 118°33'510.9
2018-May-08 04:30N 23°54' E 118°28'510.8
2018-May-08 04:00N 23°51' E 118°24'510.7
2018-May-08 03:30N 23°47' E 118°19'510.6
2018-May-08 03:00N 23°43' E 118°15'510.5
2018-May-08 02:29N 23°40' E 118°10'510.5
2018-May-08 02:00N 23°37' E 118°06'510.4
2018-May-08 01:30N 23°33' E 118°02'612.3
2018-May-08 01:00N 23°29' E 117°57'816.4
2018-May-08 00:30N 23°24' E 117°50'918.6
2018-May-08 00:00N 23°19' E 117°41'918.2
2018-May-07 23:30N 23°13' E 117°34'918.7
2018-May-07 23:00N 23°07' E 117°26'1018.5
2018-May-07 22:29N 23°01' E 117°18'18116.1
2018-May-07 11:15N 22°20' E 114°07'  
2018-May-04 19:51N 22°30' E 120°02'512.3
2018-May-04 19:27N 22°32' E 120°08'612.0
2018-May-04 18:56N 22°33' E 120°14'5 9.1
2018-May-04 18:26N 22°33' E 120°19'1 0.3
2018-May-04 13:04N 22°34' E 120°18'0 0.0
2018-May-04 12:37N 22°34' E 120°18'0 0.0
2018-May-04 12:28N 22°34' E 120°18'0 0.0
2018-May-04 11:58N 22°34' E 120°18'  
Track history (hours):
 
Tides and Currents Weather Stations Pressure Air Temp Water Temp Dewpoint Dewpoint Depression Visibility Wind Speed Wind Dir Waves Ship Positions

Hamburg

Last reported at 2018-May-14 11:28 UTC. Time now 2018-Jun-22 20:16 UTC.
Position N 30°33' E 122°15'.
Warning: this ship's position is 39 days out of date.

Length 293 m; draft 10.6 m.

Type: Ship. MMSI: 538006605.

Date/timePositionNaut miles runAvg speedWind from/ knotsBaromVisibWave heightAir tempDewpointWater temp
2018-May-14 11:28N 30°33' E 122°15'610.9
2018-May-14 10:54N 30°35' E 122°08'4 0.3
2018-May-13 22:12N 30°37' E 122°04'0 1.2
2018-May-13 21:53N 30°37' E 122°04'3 7.0
2018-May-13 21:29N 30°35' E 122°07'612.1
2018-May-13 21:01N 30°34' E 122°13'6 7.8
2018-May-13 20:11N 30°33' E 122°21'3 9.3
2018-May-13 19:49N 30°32' E 122°24'3 8.9
2018-May-13 19:30N 30°32' E 122°28'5 9.9
2018-May-13 18:59N 30°31' E 122°33'  
2018-May-08 11:21N 24°41' E 119°29'410.5
2018-May-08 11:00N 24°39' E 119°26'610.5
2018-May-08 10:28N 24°35' E 119°21'510.5
2018-May-08 09:59N 24°33' E 119°16'510.3
2018-May-08 09:30N 24°29' E 119°12'610.5
2018-May-08 08:57N 24°25' E 119°08'510.4
2018-May-08 08:30N 24°22' E 119°04'510.7
2018-May-08 08:00N 24°19' E 118°59'510.6
2018-May-08 07:30N 24°15' E 118°55'610.8
2018-May-08 06:59N 24°12' E 118°50'510.8
2018-May-08 06:30N 24°08' E 118°46'510.6
2018-May-08 06:00N 24°05' E 118°42'510.7
2018-May-08 05:30N 24°01' E 118°37'611.0
2018-May-08 05:00N 23°58' E 118°33'510.9
2018-May-08 04:30N 23°54' E 118°28'510.8
2018-May-08 04:00N 23°51' E 118°24'510.7
2018-May-08 03:30N 23°47' E 118°19'510.6
2018-May-08 03:00N 23°43' E 118°15'510.5
2018-May-08 02:29N 23°40' E 118°10'510.5
2018-May-08 02:00N 23°37' E 118°06'510.4
2018-May-08 01:30N 23°33' E 118°02'612.3
2018-May-08 01:00N 23°29' E 117°57'816.4
2018-May-08 00:30N 23°24' E 117°50'918.6
2018-May-08 00:00N 23°19' E 117°41'918.2
2018-May-07 23:30N 23°13' E 117°34'918.7
2018-May-07 23:00N 23°07' E 117°26'1018.5
2018-May-07 22:29N 23°01' E 117°18'18116.1
2018-May-07 11:15N 22°20' E 114°07'  
2018-May-04 19:51N 22°30' E 120°02'512.3
2018-May-04 19:27N 22°32' E 120°08'612.0
2018-May-04 18:56N 22°33' E 120°14'5 9.1
2018-May-04 18:26N 22°33' E 120°19'1 0.3
2018-May-04 13:04N 22°34' E 120°18'0 0.0
2018-May-04 12:37N 22°34' E 120°18'0 0.0
2018-May-04 12:28N 22°34' E 120°18'0 0.0
2018-May-04 11:58N 22°34' E 120°18'  

Dump ship's entire track history